createdAt,value
2019-02-28T00:02:40.417Z,22.3
2019-02-28T00:05:46.464Z,22.3
2019-02-28T00:08:53.618Z,22.3
2019-02-28T00:11:59.778Z,22.3
2019-02-28T00:15:05.674Z,22.2
2019-02-28T00:18:15.163Z,22.2
2019-02-28T00:21:22.141Z,22.2
2019-02-28T00:24:30.008Z,22.2
2019-02-28T00:27:36.645Z,22.1
2019-02-28T00:30:42.566Z,22.1
2019-02-28T00:33:48.637Z,22.1
2019-02-28T00:36:54.624Z,22.1
2019-02-28T00:40:00.619Z,22.1
2019-02-28T00:43:10.042Z,22.1
2019-02-28T00:46:15.940Z,22
2019-02-28T00:49:24.431Z,22
2019-02-28T00:52:32.041Z,22
2019-02-28T00:55:41.557Z,22
2019-02-28T00:58:51.227Z,22
2019-02-28T01:01:57.249Z,22
2019-02-28T01:05:04.792Z,21.9
2019-02-28T01:08:11.775Z,21.9
2019-02-28T01:11:22.786Z,21.9
2019-02-28T01:14:28.803Z,21.9
2019-02-28T01:17:40.915Z,21.9
2019-02-28T01:20:49.694Z,21.9
2019-02-28T01:23:56.282Z,21.9
2019-02-28T01:27:06.005Z,21.9
2019-02-28T01:30:12.041Z,21.8
2019-02-28T01:33:17.904Z,21.8
2019-02-28T01:36:30.475Z,21.8
2019-02-28T01:39:36.495Z,21.8
2019-02-28T01:42:42.435Z,21.8
2019-02-28T01:45:48.699Z,21.8
2019-02-28T01:48:55.188Z,21.8
2019-02-28T01:52:01.535Z,21.8
2019-02-28T01:55:13.250Z,21.8
2019-02-28T01:58:19.200Z,21.8
2019-02-28T02:01:25.181Z,21.8
2019-02-28T02:04:36.670Z,21.9
2019-02-28T02:07:47.953Z,21.9
2019-02-28T02:10:55.814Z,21.8
2019-02-28T02:14:02.088Z,21.9
2019-02-28T02:17:14.363Z,21.9
2019-02-28T02:20:20.327Z,22
2019-02-28T02:23:31.862Z,22
2019-02-28T02:26:37.726Z,22
2019-02-28T02:29:49.673Z,22
2019-02-28T02:32:55.883Z,22.1
2019-02-28T02:36:01.889Z,22.1
2019-02-28T02:39:08.043Z,22.1
2019-02-28T02:42:22.086Z,22.2
2019-02-28T02:45:28.027Z,22.2
2019-02-28T02:48:34.165Z,22.2
2019-02-28T02:51:50.251Z,22.2
2019-02-28T02:54:56.739Z,22.2
2019-02-28T02:58:02.817Z,22.3
2019-02-28T03:01:08.898Z,22.3
2019-02-28T03:04:21.344Z,22.3
2019-02-28T03:07:28.812Z,22.3
2019-02-28T03:10:34.864Z,22.3
2019-02-28T03:13:43.487Z,22.4
2019-02-28T03:16:50.086Z,22.4
2019-02-28T03:19:56.296Z,22.4
2019-02-28T03:23:03.282Z,22.4
2019-02-28T03:26:09.379Z,22.4
2019-02-28T03:29:15.554Z,22.4
2019-02-28T03:32:21.805Z,22.4
2019-02-28T03:35:44.213Z,22.5
2019-02-28T03:38:50.369Z,22.5
2019-02-28T03:41:56.547Z,22.5
2019-02-28T03:45:02.608Z,22.5
2019-02-28T03:48:08.758Z,22.5
2019-02-28T03:51:14.785Z,22.5
2019-02-28T03:54:20.885Z,22.5
2019-02-28T03:57:32.059Z,22.5
2019-02-28T04:00:38.271Z,22.6
2019-02-28T04:03:44.532Z,22.6
2019-02-28T04:06:50.541Z,22.7
2019-02-28T04:09:56.565Z,22.7
2019-02-28T04:13:02.728Z,22.8
2019-02-28T04:16:09.696Z,22.9
2019-02-28T04:19:21.039Z,22.9
2019-02-28T04:22:28.724Z,22.9
2019-02-28T04:25:34.782Z,23
2019-02-28T04:28:40.926Z,23
2019-02-28T04:31:54.055Z,23.1
2019-02-28T04:35:02.400Z,23.1
2019-02-28T04:38:08.396Z,23.1
2019-02-28T04:41:14.271Z,23.1
2019-02-28T04:44:20.432Z,23.2
2019-02-28T04:47:26.304Z,23.2
2019-02-28T04:50:32.352Z,23.2
2019-02-28T04:53:38.266Z,23.2
2019-02-28T04:56:45.466Z,23.3
2019-02-28T04:59:54.545Z,23.3
2019-02-28T05:03:00.553Z,23.3
2019-02-28T05:06:06.472Z,23.4
2019-02-28T05:09:15.438Z,23.4
2019-02-28T05:12:21.545Z,23.4
2019-02-28T05:15:27.417Z,23.4
2019-02-28T05:18:41.852Z,23.4
2019-02-28T05:21:50.571Z,23.5
2019-02-28T05:24:59.819Z,23.5
2019-02-28T05:28:06.573Z,23.5
2019-02-28T05:31:13.551Z,23.5
2019-02-28T05:34:19.555Z,23.6
2019-02-28T05:37:25.478Z,23.6
2019-02-28T05:40:31.471Z,23.6
2019-02-28T05:43:43.413Z,23.7
2019-02-28T05:46:49.448Z,23.7
2019-02-28T05:50:00.643Z,23.8
2019-02-28T05:53:09.241Z,23.8
2019-02-28T05:56:15.811Z,23.8
2019-02-28T05:59:25.963Z,23.9
2019-02-28T06:02:32.911Z,23.9
2019-02-28T06:05:39.123Z,24
2019-02-28T06:08:50.724Z,24.1
2019-02-28T06:11:56.773Z,24.1
2019-02-28T06:15:03.697Z,24.3
2019-02-28T06:18:09.856Z,24.4
2019-02-28T06:21:15.935Z,24.4
2019-02-28T06:24:25.524Z,24.5
2019-02-28T06:27:40.788Z,24.5
2019-02-28T06:30:55.467Z,24.6
2019-02-28T06:34:05.518Z,24.7
2019-02-28T06:37:14.798Z,24.9
2019-02-28T06:40:20.813Z,24.9
2019-02-28T06:43:26.750Z,25
2019-02-28T06:46:32.780Z,25
2019-02-28T06:49:42.171Z,25.2
2019-02-28T06:52:48.266Z,25.3
2019-02-28T06:55:59.639Z,25.4
2019-02-28T06:59:05.655Z,25.4
2019-02-28T07:02:11.821Z,25.5
2019-02-28T07:05:17.725Z,25.5
2019-02-28T07:08:30.511Z,25.6
2019-02-28T07:11:36.459Z,25.7
2019-02-28T07:14:44.440Z,25.7
2019-02-28T07:17:54.965Z,25.7
2019-02-28T07:21:00.858Z,25.8
2019-02-28T07:24:09.968Z,25.9
2019-02-28T07:27:15.855Z,25.9
2019-02-28T07:30:27.888Z,25.9
2019-02-28T07:33:37.001Z,26
2019-02-28T07:36:48.968Z,26
2019-02-28T07:39:54.943Z,26
2019-02-28T07:43:01.409Z,26.1
2019-02-28T07:46:12.673Z,26.1
2019-02-28T07:49:18.585Z,26.2
2019-02-28T07:52:32.245Z,26.2
2019-02-28T07:55:39.316Z,26.3
2019-02-28T07:58:45.729Z,26.4
2019-02-28T08:01:52.711Z,26.4
2019-02-28T08:05:04.685Z,26.4
2019-02-28T08:08:10.691Z,26.5
2019-02-28T08:11:19.897Z,26.5
2019-02-28T08:14:26.325Z,26.6
2019-02-28T08:17:35.354Z,26.6
2019-02-28T08:20:47.814Z,26.6
2019-02-28T08:23:53.793Z,26.6
2019-02-28T08:26:59.827Z,26.6
2019-02-28T08:30:05.918Z,26.7
2019-02-28T08:33:16.242Z,26.7
2019-02-28T08:36:25.561Z,26.7
2019-02-28T08:39:34.901Z,26.7
2019-02-28T08:42:45.473Z,26.7
2019-02-28T08:45:53.621Z,26.8
2019-02-28T08:48:59.937Z,26.7
2019-02-28T08:52:21.392Z,26.8
2019-02-28T08:55:29.197Z,26.7
2019-02-28T08:58:39.142Z,26.7
2019-02-28T09:01:47.031Z,26.7
2019-02-28T09:04:53.095Z,26.7
2019-02-28T09:07:59.185Z,26.7
2019-02-28T09:11:05.207Z,26.7
2019-02-28T09:14:11.159Z,26.7
2019-02-28T09:17:22.815Z,26.7
2019-02-28T09:20:28.885Z,26.6
2019-02-28T09:23:37.497Z,26.6
2019-02-28T09:26:44.240Z,26.6
2019-02-28T09:29:54.344Z,26.6
2019-02-28T09:33:01.127Z,26.5
2019-02-28T09:36:09.848Z,26.5
2019-02-28T09:39:22.423Z,26.5
2019-02-28T09:42:28.432Z,26.5
2019-02-28T09:45:34.345Z,26.5
2019-02-28T09:48:44.337Z,26.4
2019-02-28T09:51:50.507Z,26.4
2019-02-28T09:54:59.193Z,26.4
2019-02-28T09:58:05.788Z,26.4
2019-02-28T10:01:11.832Z,26.4
2019-02-28T10:04:17.813Z,26.4
2019-02-28T10:07:26.414Z,26.3
2019-02-28T10:10:32.736Z,26.3
2019-02-28T10:13:38.678Z,26.4
2019-02-28T10:16:44.559Z,26.4
2019-02-28T10:19:56.966Z,26.4
2019-02-28T10:23:02.886Z,26.3
2019-02-28T10:26:09.010Z,26.3
2019-02-28T10:29:20.270Z,26.3
2019-02-28T10:32:26.204Z,26.3
2019-02-28T10:35:33.391Z,26.4
2019-02-28T10:38:42.969Z,26.4
2019-02-28T10:41:48.923Z,26.4
2019-02-28T10:44:54.948Z,26.4
2019-02-28T10:48:03.838Z,26.4
2019-02-28T10:51:13.847Z,26.4
2019-02-28T10:54:20.046Z,26.3
2019-02-28T10:57:25.923Z,26.4
2019-02-28T11:00:32.561Z,26.4
2019-02-28T11:03:39.769Z,26.4
2019-02-28T11:06:46.832Z,26.3
2019-02-28T11:09:55.529Z,26.3
2019-02-28T11:13:07.159Z,26.3
2019-02-28T11:16:13.065Z,26.3
2019-02-28T11:19:24.474Z,26.3
2019-02-28T11:22:30.411Z,26.3
2019-02-28T11:25:43.123Z,26.3
2019-02-28T11:28:49.253Z,26.3
2019-02-28T11:31:55.488Z,26.3
2019-02-28T11:35:03.408Z,26.3
2019-02-28T11:38:09.325Z,26.3
2019-02-28T11:41:21.295Z,26.3
2019-02-28T11:44:27.354Z,26.4
2019-02-28T11:47:33.745Z,26.4
2019-02-28T11:50:41.854Z,26.4
2019-02-28T11:53:50.638Z,26.5
2019-02-28T11:56:56.628Z,26.4
2019-02-28T12:00:10.787Z,26.4
2019-02-28T12:03:18.486Z,26.5
2019-02-28T12:06:25.528Z,26.5
2019-02-28T12:09:32.261Z,26.5
2019-02-28T12:12:38.356Z,26.4
2019-02-28T12:15:50.483Z,26.4
2019-02-28T12:18:56.398Z,26.4
2019-02-28T12:22:02.549Z,26.4
2019-02-28T12:25:14.519Z,26.5
2019-02-28T12:28:23.376Z,26.5
2019-02-28T12:31:32.027Z,26.5
2019-02-28T12:34:41.963Z,26.4
2019-02-28T12:37:50.133Z,26.4
2019-02-28T12:41:00.259Z,26.3
2019-02-28T12:44:06.269Z,26.3
2019-02-28T12:47:17.455Z,26.3
2019-02-28T12:50:23.543Z,26.3
2019-02-28T12:53:34.268Z,26.2
2019-02-28T12:56:40.319Z,26.2
2019-02-28T12:59:51.782Z,26.2
2019-02-28T13:02:57.769Z,26.2
2019-02-28T13:06:03.864Z,26.2
2019-02-28T13:09:09.901Z,26.1
2019-02-28T13:12:24.366Z,26.1
2019-02-28T13:15:30.392Z,26.1
2019-02-28T13:18:39.481Z,26.1
2019-02-28T13:21:49.303Z,26
2019-02-28T13:24:55.249Z,26
2019-02-28T13:28:01.595Z,26
2019-02-28T13:31:08.304Z,26.1
2019-02-28T13:34:14.456Z,26.1
2019-02-28T13:37:20.487Z,26
2019-02-28T13:40:26.819Z,26
2019-02-28T13:43:32.798Z,26
2019-02-28T13:46:39.192Z,26
2019-02-28T13:49:46.590Z,25.9
2019-02-28T13:52:55.875Z,25.9
2019-02-28T13:56:32.885Z,25.9
2019-02-28T13:59:42.920Z,25.9
2019-02-28T14:02:48.929Z,26
2019-02-28T14:05:55.035Z,26
2019-02-28T14:09:02.101Z,26
2019-02-28T14:12:08.456Z,26
2019-02-28T14:15:22.266Z,25.9
2019-02-28T14:18:30.762Z,26
2019-02-28T14:21:37.785Z,26
2019-02-28T14:24:45.971Z,25.9
2019-02-28T14:27:52.951Z,26
2019-02-28T14:31:05.240Z,26.1
2019-02-28T14:34:11.245Z,26.1
2019-02-28T14:37:19.546Z,26.1
2019-02-28T14:40:25.997Z,26
2019-02-28T14:43:31.998Z,26
2019-02-28T14:46:38.050Z,25.9
2019-02-28T14:49:44.741Z,25.9
2019-02-28T14:52:50.805Z,25.9
2019-02-28T14:55:56.852Z,25.9
2019-02-28T14:59:08.844Z,25.8
2019-02-28T15:02:14.766Z,25.8
2019-02-28T15:05:21.641Z,25.8
2019-02-28T15:08:28.720Z,25.8
2019-02-28T15:11:34.706Z,25.8
2019-02-28T15:14:43.195Z,25.7
2019-02-28T15:17:49.495Z,25.7
2019-02-28T15:20:55.538Z,25.7
2019-02-28T15:24:01.667Z,25.6
2019-02-28T15:27:13.802Z,25.6
2019-02-28T15:30:19.780Z,25.6
2019-02-28T15:33:27.349Z,25.6
2019-02-28T15:36:36.116Z,25.6
2019-02-28T15:39:42.019Z,25.6
2019-02-28T15:42:54.446Z,25.6
2019-02-28T15:46:00.658Z,25.6
2019-02-28T15:49:13.537Z,25.5
2019-02-28T15:52:19.595Z,25.5
2019-02-28T15:55:25.686Z,25.5
2019-02-28T15:58:31.645Z,25.5
2019-02-28T16:01:44.655Z,25.5
2019-02-28T16:04:50.711Z,25.5
2019-02-28T16:08:10.547Z,25.5
2019-02-28T16:11:16.910Z,25.5
2019-02-28T16:14:23.010Z,25.5
2019-02-28T16:17:28.942Z,25.5
2019-02-28T16:20:41.001Z,25.5
2019-02-28T16:23:46.920Z,25.5
2019-02-28T16:26:53.382Z,25.5
2019-02-28T16:30:02.956Z,25.5
2019-02-28T16:33:08.891Z,25.5
2019-02-28T16:36:15.910Z,25.5
2019-02-28T16:39:30.534Z,25.5
2019-02-28T16:42:36.391Z,25.5
2019-02-28T16:45:48.554Z,25.5
2019-02-28T16:48:54.556Z,25.5
2019-02-28T16:52:02.451Z,25.4
2019-02-28T16:55:11.919Z,25.5
2019-02-28T16:58:18.487Z,25.5
2019-02-28T17:01:28.133Z,25.5
2019-02-28T17:04:34.065Z,25.5
2019-02-28T17:07:40.436Z,25.4
2019-02-28T17:10:50.063Z,25.4
2019-02-28T17:13:56.068Z,25.4
2019-02-28T17:17:02.017Z,25.4
2019-02-28T17:20:13.881Z,25.4
2019-02-28T17:23:19.845Z,25.3
2019-02-28T17:26:28.353Z,25.3
2019-02-28T17:29:37.287Z,25.3
2019-02-28T17:32:43.245Z,25.3
2019-02-28T17:35:52.303Z,25.3
2019-02-28T17:38:58.173Z,25.3
2019-02-28T17:42:08.457Z,25.3
2019-02-28T17:45:20.881Z,25.3
2019-02-28T17:48:26.804Z,25.3
2019-02-28T17:51:32.828Z,25.3
2019-02-28T17:54:38.848Z,25.3
2019-02-28T17:57:44.790Z,25.3
2019-02-28T18:00:57.272Z,25.3
2019-02-28T18:04:03.300Z,25.2
2019-02-28T18:07:11.358Z,25.2
2019-02-28T18:10:17.232Z,25.2
2019-02-28T18:13:31.236Z,25.2
2019-02-28T18:16:37.387Z,25.2
2019-02-28T18:19:43.375Z,25.1
2019-02-28T18:22:55.090Z,25.1
2019-02-28T18:26:01.013Z,25.1
2019-02-28T18:29:07.023Z,25.1
2019-02-28T18:32:12.872Z,25.1
2019-02-28T18:35:19.012Z,25.1
2019-02-28T18:38:24.902Z,25.1
2019-02-28T18:41:30.984Z,25
2019-02-28T18:44:43.651Z,25
2019-02-28T18:47:52.127Z,25
2019-02-28T18:50:58.055Z,25
2019-02-28T18:54:04.221Z,25
2019-02-28T18:57:10.218Z,25
2019-02-28T19:00:16.319Z,25
2019-02-28T19:03:22.338Z,25
2019-02-28T19:06:31.277Z,24.9
2019-02-28T19:09:37.303Z,24.9
2019-02-28T19:12:43.597Z,24.9
2019-02-28T19:15:49.738Z,24.9
2019-02-28T19:18:55.654Z,24.8
2019-02-28T19:22:01.675Z,24.8
2019-02-28T19:25:07.659Z,24.8
2019-02-28T19:28:13.698Z,24.8
2019-02-28T19:31:19.655Z,24.8
2019-02-28T19:34:25.600Z,24.8
2019-02-28T19:37:31.563Z,24.8
2019-02-28T19:40:37.697Z,24.7
2019-02-28T19:43:43.686Z,24.7
2019-02-28T19:46:49.652Z,24.7
2019-02-28T19:49:55.656Z,24.7
2019-02-28T19:53:01.752Z,24.7
2019-02-28T19:56:07.886Z,24.7
2019-02-28T19:59:13.801Z,24.6
2019-02-28T20:02:19.833Z,24.6
2019-02-28T20:05:25.806Z,24.6
2019-02-28T20:08:31.867Z,24.6
2019-02-28T20:11:37.748Z,24.6
2019-02-28T20:14:43.748Z,24.6
2019-02-28T20:17:49.747Z,24.6
2019-02-28T20:20:55.700Z,24.5
2019-02-28T20:24:01.724Z,24.5
2019-02-28T20:27:07.749Z,24.5
2019-02-28T20:30:13.690Z,24.5
2019-02-28T20:33:19.626Z,24.5
2019-02-28T20:36:25.639Z,24.5
2019-02-28T20:39:31.745Z,24.5
2019-02-28T20:42:37.707Z,24.5
2019-02-28T20:45:43.988Z,24.5
2019-02-28T20:48:49.944Z,24.4
2019-02-28T20:51:55.927Z,24.4
2019-02-28T20:55:01.983Z,24.4
2019-02-28T20:58:07.898Z,24.4
2019-02-28T21:01:14.122Z,24.4
2019-02-28T21:04:20.173Z,24.4
2019-02-28T21:07:28.964Z,24.4
2019-02-28T21:10:34.856Z,24.3
2019-02-28T21:13:40.870Z,24.3
2019-02-28T21:16:46.779Z,24.3
2019-02-28T21:19:52.811Z,24.3
2019-02-28T21:23:01.695Z,24.3
2019-02-28T21:26:07.692Z,24.3
2019-02-28T21:29:13.600Z,24.3
2019-02-28T21:32:19.627Z,24.2
2019-02-28T21:35:25.700Z,24.2
2019-02-28T21:38:31.570Z,24.2
2019-02-28T21:41:37.802Z,24.1
2019-02-28T21:44:43.705Z,24
2019-02-28T21:47:49.706Z,24
2019-02-28T21:50:55.888Z,23.9
2019-02-28T21:54:03.953Z,23.9
2019-02-28T21:57:10.062Z,23.9
2019-02-28T22:00:16.041Z,23.8
2019-02-28T22:03:21.958Z,23.7
2019-02-28T22:06:28.066Z,23.7
2019-02-28T22:09:34.051Z,23.6
2019-02-28T22:12:40.108Z,23.6
2019-02-28T22:15:46.277Z,23.5
2019-02-28T22:18:52.414Z,23.5
2019-02-28T22:22:01.540Z,23.5
2019-02-28T22:25:07.479Z,23.4
2019-02-28T22:28:13.601Z,23.4
2019-02-28T22:31:19.662Z,23.4
2019-02-28T22:34:25.724Z,23.3
2019-02-28T22:37:31.792Z,23.3
2019-02-28T22:40:40.731Z,23.3
2019-02-28T22:43:46.896Z,23.2
2019-02-28T22:46:52.953Z,23.2
2019-02-28T22:49:59.000Z,23.1
2019-02-28T22:53:05.181Z,23.1
2019-02-28T22:56:11.248Z,23.1
2019-02-28T22:59:17.385Z,23.1
2019-02-28T23:02:23.334Z,23
2019-02-28T23:05:32.203Z,23
2019-02-28T23:08:38.383Z,23
2019-02-28T23:11:44.418Z,23
2019-02-28T23:14:52.812Z,22.9
2019-02-28T23:17:58.795Z,22.9
2019-02-28T23:21:04.914Z,22.9
2019-02-28T23:24:10.830Z,22.8
2019-02-28T23:27:17.099Z,22.8
2019-02-28T23:30:23.699Z,22.8
2019-02-28T23:33:29.794Z,22.8
2019-02-28T23:36:35.878Z,22.8
2019-02-28T23:39:41.934Z,22.7
2019-02-28T23:42:48.051Z,22.7
2019-02-28T23:45:54.121Z,22.7
2019-02-28T23:49:00.099Z,22.7
2019-02-28T23:52:06.047Z,22.7
2019-02-28T23:55:12.003Z,22.6
2019-02-28T23:58:18.106Z,22.6
